createdAt,value
2017-04-13T00:00:33.259Z,6.85
2017-04-13T00:01:42.474Z,6.71
2017-04-13T00:02:51.509Z,6.77
2017-04-13T00:04:00.718Z,6.79
2017-04-13T00:05:09.599Z,6.81
2017-04-13T00:06:18.489Z,6.7
2017-04-13T00:07:27.377Z,6.7
2017-04-13T00:08:36.312Z,6.74
2017-04-13T00:09:45.526Z,6.67
2017-04-13T00:10:54.749Z,6.66
2017-04-13T00:12:03.680Z,6.62
2017-04-13T00:13:12.563Z,6.59
2017-04-13T00:14:21.928Z,6.64
2017-04-13T00:15:30.816Z,6.49
2017-04-13T00:16:40.351Z,6.51
2017-04-13T00:17:49.237Z,6.46
2017-04-13T00:18:58.123Z,6.52
2017-04-13T00:20:07.682Z,6.48
2017-04-13T00:21:17.214Z,6.48
2017-04-13T00:22:26.106Z,6.46
2017-04-13T00:23:34.987Z,6.41
2017-04-13T00:24:44.521Z,6.43
2017-04-13T00:25:53.879Z,6.43
2017-04-13T00:27:03.088Z,6.43
2017-04-13T00:28:12.304Z,6.44
2017-04-13T00:29:21.192Z,6.51
2017-04-13T00:30:30.401Z,6.51
2017-04-13T00:31:39.435Z,6.51
2017-04-13T00:32:48.320Z,6.34
2017-04-13T00:33:57.857Z,6.28
2017-04-13T00:35:06.745Z,6.4
2017-04-13T00:36:15.628Z,6.33
2017-04-13T00:37:24.990Z,6.3
2017-04-13T00:38:34.202Z,6.27
2017-04-13T00:39:43.739Z,6.31
2017-04-13T00:40:52.946Z,6.25
2017-04-13T00:42:02.476Z,6.28
2017-04-13T00:43:11.846Z,6.21
2017-04-13T00:44:21.057Z,6.3
2017-04-13T00:45:30.920Z,6.25
2017-04-13T00:46:40.129Z,6.22
2017-04-13T00:47:49.030Z,6.25
2017-04-13T00:48:58.295Z,6.11
2017-04-13T00:50:07.505Z,6.11
2017-04-13T00:51:17.043Z,6.09
2017-04-13T00:52:26.259Z,6.08
2017-04-13T00:53:35.475Z,6.15
2017-04-13T00:54:44.511Z,6.15
2017-04-13T00:55:53.716Z,6.08
2017-04-13T00:57:02.609Z,6.08
2017-04-13T00:58:12.144Z,6.04
2017-04-13T00:59:21.678Z,6.04
2017-04-13T01:00:31.045Z,6.04
2017-04-13T01:01:40.252Z,6.03
2017-04-13T01:02:49.787Z,5.97
2017-04-13T01:03:58.671Z,6.06
2017-04-13T01:05:07.884Z,5.89
2017-04-13T01:06:17.197Z,5.9
2017-04-13T01:07:26.088Z,5.85
2017-04-13T01:08:35.016Z,5.9
2017-04-13T01:09:43.901Z,5.82
2017-04-13T01:10:53.431Z,5.85
2017-04-13T01:12:02.469Z,6.04
2017-04-13T01:13:11.684Z,5.91
2017-04-13T01:14:20.567Z,5.83
2017-04-13T01:15:29.451Z,5.85
2017-04-13T01:16:38.662Z,5.83
2017-04-13T01:17:47.554Z,5.83
2017-04-13T01:18:56.764Z,5.93
2017-04-13T01:20:05.650Z,5.91
2017-04-13T01:21:14.543Z,5.72
2017-04-13T01:22:23.756Z,5.86
2017-04-13T01:23:33.592Z,5.86
2017-04-13T01:24:43.129Z,5.81
2017-04-13T01:25:52.341Z,5.81
2017-04-13T01:27:01.278Z,5.75
2017-04-13T01:28:10.493Z,5.81
2017-04-13T01:29:20.179Z,5.78
2017-04-13T01:30:29.714Z,5.67
2017-04-13T01:31:38.600Z,5.76
2017-04-13T01:32:47.847Z,5.72
2017-04-13T01:33:57.396Z,5.74
2017-04-13T01:35:06.658Z,5.83
2017-04-13T01:36:16.524Z,5.74
2017-04-13T01:37:26.060Z,5.86
2017-04-13T01:38:35.276Z,5.83
2017-04-13T01:39:45.134Z,5.94
2017-04-13T01:40:54.611Z,5.89
2017-04-13T01:42:03.503Z,5.99
2017-04-13T01:43:12.713Z,5.9
2017-04-13T01:44:21.919Z,5.96
2017-04-13T01:45:31.133Z,5.97
2017-04-13T01:46:40.368Z,6.01
2017-04-13T01:47:49.254Z,6.01
2017-04-13T01:48:58.143Z,6
2017-04-13T01:50:07.031Z,5.94
2017-04-13T01:51:16.246Z,5.99
2017-04-13T01:52:25.608Z,6
2017-04-13T01:53:35.482Z,5.99
2017-04-13T01:54:45.019Z,6.12
2017-04-13T01:55:53.907Z,6.03
2017-04-13T01:57:03.120Z,6.12
2017-04-13T01:58:12.058Z,6.03
2017-04-13T01:59:20.948Z,6.21
2017-04-13T02:00:30.484Z,6.03
2017-04-13T02:01:39.697Z,6.12
2017-04-13T02:02:48.578Z,6.17
2017-04-13T02:03:57.943Z,6.21
2017-04-13T02:05:06.855Z,6.28
2017-04-13T02:06:16.388Z,6.22
2017-04-13T02:07:25.596Z,6.3
2017-04-13T02:08:34.859Z,6.22
2017-04-13T02:09:44.218Z,6.28
2017-04-13T02:10:53.102Z,6.27
2017-04-13T02:12:01.988Z,6.19
2017-04-13T02:13:11.526Z,6.21
2017-04-13T02:14:20.461Z,6.3
2017-04-13T02:15:29.671Z,6.3
2017-04-13T02:16:38.879Z,6.36
2017-04-13T02:17:48.099Z,6.33
2017-04-13T02:18:57.962Z,6.38
2017-04-13T02:20:07.166Z,6.48
2017-04-13T02:21:17.134Z,6.51
2017-04-13T02:22:26.023Z,6.43
2017-04-13T02:23:34.912Z,6.48
2017-04-13T02:24:44.449Z,6.51
2017-04-13T02:25:53.679Z,6.51
2017-04-13T02:27:02.767Z,6.51
2017-04-13T02:28:11.971Z,6.61
2017-04-13T02:29:21.504Z,6.52
2017-04-13T02:30:30.396Z,6.58
2017-04-13T02:31:39.611Z,6.52
2017-04-13T02:32:48.547Z,6.66
2017-04-13T02:33:57.441Z,6.61
2017-04-13T02:35:06.333Z,6.64
2017-04-13T02:36:15.220Z,6.59
2017-04-13T02:37:24.112Z,6.67
2017-04-13T02:38:33.617Z,6.59
2017-04-13T02:39:42.506Z,6.66
2017-04-13T02:40:51.394Z,6.62
2017-04-13T02:42:00.283Z,6.62
2017-04-13T02:43:09.498Z,6.67
2017-04-13T02:44:18.758Z,6.77
2017-04-13T02:45:27.977Z,6.62
2017-04-13T02:46:37.186Z,6.61
2017-04-13T02:47:46.396Z,6.71
2017-04-13T02:48:55.613Z,6.7
2017-04-13T02:50:04.751Z,6.73
2017-04-13T02:51:13.692Z,6.7
2017-04-13T02:52:22.581Z,6.66
2017-04-13T02:53:31.793Z,6.67
2017-04-13T02:54:41.010Z,6.71
2017-04-13T02:55:50.366Z,6.61
2017-04-13T02:56:59.249Z,6.62
2017-04-13T02:58:08.136Z,6.73
2017-04-13T02:59:17.019Z,6.69
2017-04-13T03:00:25.913Z,6.7
2017-04-13T03:01:34.850Z,6.76
2017-04-13T03:02:44.062Z,6.79
2017-04-13T03:03:52.948Z,6.67
2017-04-13T03:05:02.158Z,6.7
2017-04-13T03:06:11.046Z,6.69
2017-04-13T03:07:20.083Z,6.74
2017-04-13T03:08:28.967Z,6.8
2017-04-13T03:09:38.513Z,6.77
2017-04-13T03:10:47.454Z,6.77
2017-04-13T03:11:56.667Z,6.74
2017-04-13T03:13:05.808Z,6.81
2017-04-13T03:14:15.366Z,6.67
2017-04-13T03:15:25.226Z,6.76
2017-04-13T03:16:34.123Z,6.76
2017-04-13T03:17:43.010Z,6.74
2017-04-13T03:18:52.975Z,6.79
2017-04-13T03:20:02.197Z,6.91
2017-04-13T03:21:11.736Z,6.85
2017-04-13T03:22:20.620Z,6.89
2017-04-13T03:23:29.843Z,6.84
2017-04-13T03:24:39.488Z,6.88
2017-04-13T03:25:48.698Z,6.87
2017-04-13T03:26:57.582Z,6.87
2017-04-13T03:28:06.796Z,6.85
2017-04-13T03:29:15.700Z,6.85
2017-04-13T03:30:24.838Z,6.85
2017-04-13T03:31:33.736Z,6.88
2017-04-13T03:32:42.621Z,6.79
2017-04-13T03:33:51.832Z,6.88
2017-04-13T03:35:01.041Z,6.88
2017-04-13T03:36:10.402Z,6.92
2017-04-13T03:37:19.610Z,6.91
2017-04-13T03:38:28.819Z,6.92
2017-04-13T03:39:37.708Z,6.91
2017-04-13T03:40:46.918Z,6.92
2017-04-13T03:41:56.656Z,7.05
2017-04-13T03:43:05.599Z,7.02
2017-04-13T03:44:14.812Z,6.89
2017-04-13T03:45:23.695Z,6.88
2017-04-13T03:46:32.903Z,6.97
2017-04-13T03:47:41.993Z,6.99
2017-04-13T03:48:51.215Z,7.03
2017-04-13T03:50:00.423Z,6.99
2017-04-13T03:51:09.314Z,7.06
2017-04-13T03:52:18.206Z,7.06
2017-04-13T03:53:27.662Z,7.09
2017-04-13T03:54:36.877Z,7.02
2017-04-13T03:55:46.089Z,6.98
2017-04-13T03:56:55.298Z,7.06
2017-04-13T03:58:04.184Z,7.05
2017-04-13T03:59:13.397Z,7.07
2017-04-13T04:00:23.325Z,7.06
2017-04-13T04:01:32.212Z,7.03
2017-04-13T04:02:41.427Z,7.03
2017-04-13T04:03:50.316Z,7.03
2017-04-13T04:04:59.387Z,7.07
2017-04-13T04:06:08.272Z,7.13
2017-04-13T04:07:17.165Z,7.09
2017-04-13T04:08:26.146Z,7.12
2017-04-13T04:09:35.030Z,7.12
2017-04-13T04:10:44.207Z,7.12
2017-04-13T04:11:53.102Z,7.17
2017-04-13T04:13:01.990Z,7.21
2017-04-13T04:14:10.874Z,7.23
2017-04-13T04:15:20.408Z,7.16
2017-04-13T04:16:29.290Z,7.21
2017-04-13T04:17:38.508Z,7.13
2017-04-13T04:18:47.396Z,7.23
2017-04-13T04:19:56.278Z,7.3
2017-04-13T04:21:05.163Z,7.23
2017-04-13T04:22:14.635Z,7.24
2017-04-13T04:23:23.849Z,7.32
2017-04-13T04:24:33.068Z,7.2
2017-04-13T04:25:41.957Z,7.45
2017-04-13T04:26:50.844Z,7.32
2017-04-13T04:28:00.221Z,7.35
2017-04-13T04:29:09.431Z,7.27
2017-04-13T04:30:18.311Z,7.27
2017-04-13T04:31:27.521Z,7.32
2017-04-13T04:32:36.409Z,7.32
2017-04-13T04:33:45.299Z,7.2
2017-04-13T04:34:54.514Z,7.13
2017-04-13T04:36:03.400Z,7.15
2017-04-13T04:37:12.288Z,7.32
2017-04-13T04:38:21.172Z,7.34
2017-04-13T04:39:30.111Z,7.3
2017-04-13T04:40:38.997Z,7.21
2017-04-13T04:41:47.883Z,7.17
2017-04-13T04:42:56.767Z,7.32
2017-04-13T04:44:06.305Z,7.32
2017-04-13T04:45:15.566Z,7.1
2017-04-13T04:46:24.450Z,7.21
2017-04-13T04:47:33.337Z,7.24
2017-04-13T04:48:42.222Z,7.12
2017-04-13T04:49:51.103Z,7.12
2017-04-13T04:51:00.288Z,6.98
2017-04-13T04:52:09.548Z,6.99
2017-04-13T04:53:18.435Z,6.95
2017-04-13T04:54:27.317Z,6.91
2017-04-13T04:55:36.537Z,6.94
2017-04-13T04:56:46.119Z,6.92
2017-04-13T04:57:55.003Z,6.92
2017-04-13T04:59:04.214Z,6.87
2017-04-13T05:00:13.809Z,6.8
2017-04-13T05:01:22.696Z,6.89
2017-04-13T05:02:31.685Z,6.95
2017-04-13T05:03:40.900Z,6.92
2017-04-13T05:04:49.787Z,6.91
2017-04-13T05:05:58.679Z,6.91
2017-04-13T05:07:07.572Z,6.87
2017-04-13T05:08:16.934Z,6.84
2017-04-13T05:09:26.146Z,6.84
2017-04-13T05:10:35.042Z,6.88
2017-04-13T05:11:43.924Z,6.89
2017-04-13T05:12:52.811Z,6.94
2017-04-13T05:14:02.077Z,6.87
2017-04-13T05:15:10.964Z,6.91
2017-04-13T05:16:19.848Z,6.85
2017-04-13T05:17:29.057Z,6.94
2017-04-13T05:18:38.264Z,6.91
2017-04-13T05:19:47.297Z,6.91
2017-04-13T05:20:56.188Z,6.97
2017-04-13T05:22:05.077Z,6.91
2017-04-13T05:23:14.290Z,6.92
2017-04-13T05:24:23.175Z,6.97
2017-04-13T05:25:32.211Z,7.03
2017-04-13T05:26:41.098Z,7.06
2017-04-13T05:27:50.315Z,7.06
2017-04-13T05:28:59.202Z,7.02
2017-04-13T05:30:08.411Z,7.03
2017-04-13T05:31:17.673Z,7.16
2017-04-13T05:32:26.575Z,7.12
2017-04-13T05:33:35.461Z,7.13
2017-04-13T05:34:44.675Z,7.13
2017-04-13T05:35:53.887Z,7.17
2017-04-13T05:37:03.674Z,7.12
2017-04-13T05:38:12.889Z,7.21
2017-04-13T05:39:21.776Z,7.16
2017-04-13T05:40:30.673Z,7.17
2017-04-13T05:41:39.559Z,7.16
2017-04-13T05:42:48.695Z,7.2
2017-04-13T05:43:57.905Z,7.17
2017-04-13T05:45:07.118Z,7.17
2017-04-13T05:46:16.326Z,7.2
2017-04-13T05:47:25.541Z,7.17
2017-04-13T05:48:34.580Z,7.2
2017-04-13T05:49:43.465Z,7.32
2017-04-13T05:50:52.350Z,7.31
2017-04-13T05:52:01.236Z,7.31
2017-04-13T05:53:10.124Z,7.28
2017-04-13T05:54:19.062Z,7.31
2017-04-13T05:55:28.604Z,7.32
2017-04-13T05:56:37.487Z,7.35
2017-04-13T05:57:46.703Z,7.45
2017-04-13T05:58:55.919Z,7.42
2017-04-13T06:00:04.953Z,7.45
2017-04-13T06:01:14.492Z,7.45
2017-04-13T06:02:23.704Z,7.52
2017-04-13T06:03:32.597Z,7.48
2017-04-13T06:04:41.804Z,7.63
2017-04-13T06:05:50.845Z,7.6
2017-04-13T06:06:59.734Z,7.57
2017-04-13T06:08:08.958Z,7.61
2017-04-13T06:09:18.173Z,7.61
2017-04-13T06:10:27.067Z,7.61
2017-04-13T06:11:36.404Z,7.69
2017-04-13T06:12:45.289Z,7.74
2017-04-13T06:13:54.174Z,7.77
2017-04-13T06:15:03.060Z,7.8
2017-04-13T06:16:11.959Z,7.82
2017-04-13T06:17:21.325Z,7.85
2017-04-13T06:18:30.899Z,7.82
2017-04-13T06:19:40.118Z,7.85
2017-04-13T06:20:49.333Z,7.85
2017-04-13T06:21:58.217Z,7.9
2017-04-13T06:23:07.364Z,7.9
2017-04-13T06:24:16.576Z,7.85
2017-04-13T06:25:25.787Z,7.82
2017-04-13T06:26:35.003Z,7.89
2017-04-13T06:27:43.898Z,7.86
2017-04-13T06:28:52.934Z,7.86
2017-04-13T06:30:01.816Z,7.86
2017-04-13T06:31:10.707Z,7.86
2017-04-13T06:32:19.924Z,7.89
2017-04-13T06:33:29.133Z,7.83
2017-04-13T06:34:38.422Z,7.98
2017-04-13T06:35:47.964Z,7.97
2017-04-13T06:36:56.858Z,7.93
2017-04-13T06:38:05.746Z,8.1
2017-04-13T06:39:14.630Z,7.98
2017-04-13T06:40:24.045Z,7.97
2017-04-13T06:41:32.928Z,7.93
2017-04-13T06:42:42.136Z,7.93
2017-04-13T06:43:51.027Z,8.04
2017-04-13T06:44:59.911Z,8.1
2017-04-13T06:46:09.279Z,8.18
2017-04-13T06:47:18.175Z,8.1
2017-04-13T06:48:27.065Z,8.08
2017-04-13T06:49:35.956Z,8.15
2017-04-13T06:50:44.851Z,8.1
2017-04-13T06:51:54.146Z,8.12
2017-04-13T06:53:03.031Z,8.19
2017-04-13T06:54:11.958Z,8.26
2017-04-13T06:55:20.893Z,8.3
2017-04-13T06:56:30.105Z,8.33
2017-04-13T06:57:40.174Z,8.34
2017-04-13T06:58:49.063Z,8.3
2017-04-13T06:59:57.946Z,8.33
2017-04-13T07:01:06.832Z,8.29
2017-04-13T07:02:16.046Z,8.29
2017-04-13T07:03:25.462Z,8.4
2017-04-13T07:04:34.354Z,8.5
2017-04-13T07:05:43.296Z,8.48
2017-04-13T07:06:52.509Z,8.44
2017-04-13T07:08:01.413Z,8.53
2017-04-13T07:09:10.600Z,8.58
2017-04-13T07:10:19.809Z,8.59
2017-04-13T07:11:28.742Z,8.58
2017-04-13T07:12:37.636Z,8.56
2017-04-13T07:13:46.537Z,8.61
2017-04-13T07:14:55.479Z,8.58
2017-04-13T07:16:04.702Z,8.61
2017-04-13T07:17:13.594Z,8.74
2017-04-13T07:18:22.484Z,8.73
2017-04-13T07:19:31.377Z,8.74
2017-04-13T07:20:40.747Z,8.73
2017-04-13T07:21:49.969Z,8.63
2017-04-13T07:22:58.856Z,8.77
2017-04-13T07:24:07.742Z,8.76
2017-04-13T07:25:16.952Z,8.81
2017-04-13T07:26:26.325Z,8.89
2017-04-13T07:27:35.863Z,8.94
2017-04-13T07:28:44.758Z,8.99
2017-04-13T07:29:53.646Z,9.02
2017-04-13T07:31:02.542Z,9.04
2017-04-13T07:32:11.593Z,9.05
2017-04-13T07:33:20.484Z,9.1
2017-04-13T07:34:29.400Z,9.08
2017-04-13T07:35:38.612Z,9.17
2017-04-13T07:36:47.503Z,9.1
2017-04-13T07:37:56.442Z,9.2
2017-04-13T07:39:05.332Z,9.24
2017-04-13T07:40:14.223Z,9.23
2017-04-13T07:41:23.115Z,9.24
2017-04-13T07:42:32.335Z,9.18
2017-04-13T07:43:41.479Z,9.23
2017-04-13T07:44:50.403Z,9.31
2017-04-13T07:45:59.297Z,9.23
2017-04-13T07:47:08.192Z,9.35
2017-04-13T07:48:17.082Z,9.38
2017-04-13T07:49:26.219Z,9.39
2017-04-13T07:50:35.107Z,9.54
2017-04-13T07:51:43.995Z,9.53
2017-04-13T07:52:53.210Z,9.56
2017-04-13T07:54:02.099Z,9.51
2017-04-13T07:55:11.091Z,9.57
2017-04-13T07:56:19.981Z,9.56
2017-04-13T07:57:29.194Z,9.54
2017-04-13T07:58:38.406Z,9.65
2017-04-13T07:59:47.341Z,9.61
2017-04-13T08:00:56.531Z,9.81
2017-04-13T08:02:05.428Z,9.66
2017-04-13T08:03:14.316Z,9.79
2017-04-13T08:04:23.528Z,9.91
2017-04-13T08:05:32.743Z,9.84
2017-04-13T08:06:41.794Z,9.89
2017-04-13T08:07:51.034Z,9.91
2017-04-13T08:08:59.923Z,9.87
2017-04-13T08:10:08.821Z,9.83
2017-04-13T08:11:18.044Z,9.84
2017-04-13T08:12:27.306Z,9.75
2017-04-13T08:13:36.194Z,9.81
2017-04-13T08:14:45.086Z,9.79
2017-04-13T08:15:53.974Z,9.79
2017-04-13T08:17:03.213Z,9.76
2017-04-13T08:18:12.151Z,9.84
2017-04-13T08:19:21.362Z,9.83
2017-04-13T08:20:30.579Z,9.79
2017-04-13T08:21:39.471Z,9.75
2017-04-13T08:22:49.009Z,9.78
2017-04-13T08:23:58.050Z,9.68
2017-04-13T08:25:06.946Z,9.66
2017-04-13T08:26:15.841Z,9.57
2017-04-13T08:27:25.066Z,9.48
2017-04-13T08:28:33.952Z,9.46
2017-04-13T08:29:44.046Z,9.4
2017-04-13T08:30:52.937Z,9.54
2017-04-13T08:32:01.832Z,9.33
2017-04-13T08:33:11.367Z,9.4
2017-04-13T08:34:20.580Z,9.43
2017-04-13T08:35:29.567Z,9.43
2017-04-13T08:36:38.456Z,9.51
2017-04-13T08:37:47.666Z,9.51
2017-04-13T08:38:56.556Z,9.65
2017-04-13T08:40:05.450Z,9.68
2017-04-13T08:41:14.487Z,9.57
2017-04-13T08:42:23.384Z,9.53
2017-04-13T08:43:32.610Z,9.51
2017-04-13T08:44:41.506Z,9.39
2017-04-13T08:45:51.070Z,9.33
2017-04-13T08:47:00.115Z,9.28
2017-04-13T08:48:09.018Z,9.39
2017-04-13T08:49:17.917Z,9.47
2017-04-13T08:50:26.821Z,9.54
2017-04-13T08:51:35.734Z,9.53
2017-04-13T08:52:45.113Z,9.54
2017-04-13T08:53:54.013Z,9.48
2017-04-13T08:55:02.909Z,9.58
2017-04-13T08:56:11.802Z,9.68
2017-04-13T08:57:20.690Z,9.89
2017-04-13T08:58:29.732Z,9.97
2017-04-13T08:59:38.618Z,10.04
2017-04-13T09:00:47.507Z,9.99
2017-04-13T09:01:56.422Z,10.08
2017-04-13T09:03:05.634Z,10.09
2017-04-13T09:04:14.771Z,10.02
2017-04-13T09:05:23.991Z,10.12
2017-04-13T09:06:32.894Z,10.2
2017-04-13T09:07:41.825Z,10.17
2017-04-13T09:08:50.718Z,10.2
2017-04-13T09:09:59.667Z,10.29
2017-04-13T09:11:08.560Z,10.3
2017-04-13T09:12:17.450Z,10.25
2017-04-13T09:13:26.340Z,10.32
2017-04-13T09:14:35.236Z,10.47
2017-04-13T09:15:44.176Z,10.61
2017-04-13T09:16:53.063Z,10.73
2017-04-13T09:18:01.953Z,10.79
2017-04-13T09:19:10.842Z,10.82
2017-04-13T09:20:20.059Z,10.84
2017-04-13T09:21:29.648Z,10.94
2017-04-13T09:22:38.538Z,10.84
2017-04-13T09:23:47.431Z,10.88
2017-04-13T09:24:56.319Z,10.81
2017-04-13T09:26:05.535Z,10.97
2017-04-13T09:27:14.529Z,10.91
2017-04-13T09:28:23.744Z,10.89
2017-04-13T09:29:32.630Z,11.03
2017-04-13T09:30:41.520Z,11.09
2017-04-13T09:31:50.409Z,11.15
2017-04-13T09:32:59.447Z,11.15
2017-04-13T09:34:08.338Z,11.09
2017-04-13T09:35:17.559Z,10.86
2017-04-13T09:36:26.776Z,10.84
2017-04-13T09:37:35.991Z,10.78
2017-04-13T09:38:44.931Z,10.68
2017-04-13T09:39:53.819Z,10.73
2017-04-13T09:41:02.717Z,10.79
2017-04-13T09:42:11.618Z,10.96
2017-04-13T09:43:20.832Z,10.84
2017-04-13T09:44:29.875Z,10.92
2017-04-13T09:45:39.097Z,11.03
2017-04-13T09:46:47.989Z,11.18
2017-04-13T09:47:57.203Z,11.21
2017-04-13T09:49:06.095Z,11.17
2017-04-13T09:50:15.036Z,11.06
2017-04-13T09:51:23.933Z,10.97
2017-04-13T09:52:32.823Z,10.94
2017-04-13T09:53:41.714Z,10.92
2017-04-13T09:54:50.618Z,11.02
2017-04-13T09:55:59.506Z,10.92
2017-04-13T09:57:08.401Z,10.78
2017-04-13T09:58:17.617Z,10.4
2017-04-13T09:59:26.506Z,10.02
2017-04-13T10:00:35.717Z,9.68
2017-04-13T10:01:44.659Z,9.32
2017-04-13T10:02:53.547Z,9.31
2017-04-13T10:04:02.436Z,9.23
2017-04-13T10:05:11.331Z,9.28
2017-04-13T10:06:20.221Z,9.1
2017-04-13T10:07:29.208Z,9.24
2017-04-13T10:08:38.473Z,9.17
2017-04-13T10:09:47.362Z,9.24
2017-04-13T10:10:56.249Z,9.17
2017-04-13T10:12:05.143Z,9.35
2017-04-13T10:13:14.563Z,9.42
2017-04-13T10:14:23.775Z,9.42
2017-04-13T10:15:32.666Z,9.51
2017-04-13T10:16:42.206Z,9.5
2017-04-13T10:17:51.420Z,9.69
2017-04-13T10:19:00.787Z,9.65
2017-04-13T10:20:09.677Z,9.74
2017-04-13T10:21:18.570Z,9.89
2017-04-13T10:22:27.465Z,10.07
2017-04-13T10:23:36.425Z,10.2
2017-04-13T10:24:45.465Z,10.34
2017-04-13T10:25:54.351Z,10.42
2017-04-13T10:27:03.242Z,10.38
2017-04-13T10:28:12.139Z,10.52
2017-04-13T10:29:21.030Z,10.64
2017-04-13T10:30:30.170Z,10.67
2017-04-13T10:31:39.383Z,10.6
2017-04-13T10:32:48.268Z,10.47
2017-04-13T10:33:57.478Z,10.42
2017-04-13T10:35:06.694Z,10.41
2017-04-13T10:36:15.696Z,10.55
2017-04-13T10:37:24.588Z,10.61
2017-04-13T10:38:33.524Z,10.74
2017-04-13T10:39:42.428Z,10.78
2017-04-13T10:40:51.648Z,10.96
2017-04-13T10:42:00.687Z,10.85
2017-04-13T10:43:09.907Z,10.86
2017-04-13T10:44:19.121Z,10.89
2017-04-13T10:45:28.019Z,10.85
2017-04-13T10:46:36.915Z,10.79
2017-04-13T10:47:45.953Z,10.73
2017-04-13T10:48:54.845Z,10.68
2017-04-13T10:50:04.059Z,10.68
2017-04-13T10:51:12.961Z,10.66
2017-04-13T10:52:21.849Z,10.71
2017-04-13T10:53:30.991Z,10.74
2017-04-13T10:54:39.877Z,10.78
2017-04-13T10:55:48.766Z,10.84
2017-04-13T10:56:58.305Z,10.94
2017-04-13T10:58:07.521Z,10.92
2017-04-13T10:59:16.461Z,11.06
2017-04-13T11:00:25.678Z,11.14
2017-04-13T11:01:34.568Z,11.14
2017-04-13T11:02:43.453Z,11.22
2017-04-13T11:03:52.667Z,11.18
2017-04-13T11:05:01.661Z,10.92
2017-04-13T11:06:10.876Z,10.76
2017-04-13T11:07:20.085Z,10.61
2017-04-13T11:08:29.125Z,10.42
2017-04-13T11:09:38.012Z,10.64
2017-04-13T11:10:47.107Z,10.66
2017-04-13T11:11:55.995Z,10.66
2017-04-13T11:13:04.888Z,10.81
2017-04-13T11:14:14.107Z,10.94
2017-04-13T11:15:22.994Z,10.91
2017-04-13T11:16:32.038Z,10.96
2017-04-13T11:17:40.974Z,10.85
2017-04-13T11:18:49.860Z,10.91
2017-04-13T11:19:58.789Z,10.82
2017-04-13T11:21:08.327Z,10.88
2017-04-13T11:22:17.692Z,10.91
2017-04-13T11:23:26.580Z,10.91
2017-04-13T11:24:35.470Z,10.97
2017-04-13T11:25:44.358Z,10.81
2017-04-13T11:26:53.292Z,10.82
2017-04-13T11:28:02.236Z,10.88
2017-04-13T11:29:11.458Z,10.79
2017-04-13T11:30:20.354Z,10.71
2017-04-13T11:31:29.247Z,10.84
2017-04-13T11:32:38.136Z,10.78
2017-04-13T11:33:47.321Z,10.81
2017-04-13T11:34:56.211Z,10.81
2017-04-13T11:36:05.107Z,10.82
2017-04-13T11:37:14.322Z,10.79
2017-04-13T11:38:23.212Z,10.79
2017-04-13T11:39:32.246Z,10.79
2017-04-13T11:40:41.135Z,10.86
2017-04-13T11:41:50.032Z,10.79
2017-04-13T11:42:58.919Z,10.79
2017-04-13T11:44:07.816Z,10.73
2017-04-13T11:45:16.854Z,10.74
2017-04-13T11:46:26.081Z,10.82
2017-04-13T11:47:34.977Z,10.94
2017-04-13T11:48:43.867Z,10.89
2017-04-13T11:49:52.755Z,10.91
2017-04-13T11:51:01.694Z,10.82
2017-04-13T11:52:10.589Z,10.97
2017-04-13T11:53:19.805Z,10.89
2017-04-13T11:54:28.697Z,11.1
2017-04-13T11:55:37.906Z,11.25
2017-04-13T11:56:47.320Z,11.46
2017-04-13T11:57:56.538Z,11.64
2017-04-13T11:59:05.762Z,11.72
2017-04-13T12:00:14.985Z,11.86
2017-04-13T12:01:23.879Z,11.96
2017-04-13T12:02:32.768Z,11.82
2017-04-13T12:03:42.632Z,11.78
2017-04-13T12:04:51.899Z,11.72
2017-04-13T12:06:00.789Z,11.69
2017-04-13T12:07:09.682Z,11.55
2017-04-13T12:08:18.725Z,11.55
2017-04-13T12:09:27.620Z,11.35
2017-04-13T12:10:36.516Z,11.4
2017-04-13T12:11:46.063Z,11.32
2017-04-13T12:12:55.281Z,11.25
2017-04-13T12:14:04.644Z,11.25
2017-04-13T12:15:13.534Z,11.18
2017-04-13T12:16:22.757Z,10.97
2017-04-13T12:17:31.656Z,11.02
2017-04-13T12:18:40.874Z,11.04
2017-04-13T12:19:50.439Z,11
2017-04-13T12:20:59.330Z,10.88
2017-04-13T12:22:08.221Z,11.02
2017-04-13T12:23:17.438Z,11.02
2017-04-13T12:24:26.327Z,11.07
2017-04-13T12:25:35.693Z,11.02
2017-04-13T12:26:44.584Z,11
2017-04-13T12:27:53.474Z,10.84
2017-04-13T12:29:02.420Z,10.88
2017-04-13T12:30:11.307Z,10.88
2017-04-13T12:31:20.354Z,10.85
2017-04-13T12:32:29.568Z,10.84
2017-04-13T12:33:38.786Z,10.82
2017-04-13T12:34:47.997Z,11.02
2017-04-13T12:35:56.888Z,11.04
2017-04-13T12:37:05.925Z,11.04
2017-04-13T12:38:15.139Z,11.1
2017-04-13T12:39:24.030Z,11.18
2017-04-13T12:40:32.928Z,11.03
2017-04-13T12:41:41.815Z,10.89
2017-04-13T12:42:51.284Z,10.52
2017-04-13T12:44:00.172Z,10.53
2017-04-13T12:45:09.426Z,10.42
2017-04-13T12:46:18.313Z,10.42
2017-04-13T12:47:27.851Z,10.41
2017-04-13T12:48:36.989Z,10.25
2017-04-13T12:49:45.882Z,10.36
2017-04-13T12:50:54.773Z,10.22
2017-04-13T12:52:03.663Z,9.97
2017-04-13T12:53:12.551Z,9.84
2017-04-13T12:54:21.697Z,9.56
2017-04-13T12:55:31.238Z,9.58
2017-04-13T12:56:40.129Z,9.79
2017-04-13T12:57:49.338Z,9.66
2017-04-13T12:58:58.231Z,9.66
2017-04-13T13:00:07.793Z,9.72
2017-04-13T13:01:17.002Z,9.78
2017-04-13T13:02:25.891Z,9.74
2017-04-13T13:03:34.797Z,9.79
2017-04-13T13:04:43.686Z,9.96
2017-04-13T13:05:52.734Z,10.02
2017-04-13T13:07:01.627Z,10.12
2017-04-13T13:08:10.523Z,10.45
2017-04-13T13:09:19.413Z,10.71
2017-04-13T13:10:28.303Z,10.86
2017-04-13T13:11:37.344Z,11.03
2017-04-13T13:12:46.234Z,11.27
2017-04-13T13:13:55.451Z,11.24
2017-04-13T13:15:04.344Z,11.28
2017-04-13T13:16:13.238Z,11.36
2017-04-13T13:17:22.330Z,11.35
2017-04-13T13:18:31.221Z,11.49
2017-04-13T13:19:40.116Z,11.44
2017-04-13T13:20:49.012Z,11.54
2017-04-13T13:21:57.914Z,11.54
2017-04-13T13:23:06.909Z,11.76
2017-04-13T13:24:15.808Z,11.95
2017-04-13T13:25:24.704Z,12.27
2017-04-13T13:26:34.264Z,12.17
2017-04-13T13:27:43.161Z,11.91
2017-04-13T13:28:52.530Z,11.88
2017-04-13T13:30:01.421Z,11.69
2017-04-13T13:31:10.319Z,11.8
2017-04-13T13:32:19.539Z,11.79
2017-04-13T13:33:28.435Z,11.72
2017-04-13T13:34:37.484Z,11.69
2017-04-13T13:35:46.378Z,11.52
2017-04-13T13:36:55.273Z,11.7
2017-04-13T13:38:04.173Z,11.79
2017-04-13T13:39:13.065Z,12.1
2017-04-13T13:40:22.358Z,12.17
2017-04-13T13:41:31.270Z,12.34
2017-04-13T13:42:40.812Z,12.41
2017-04-13T13:43:49.706Z,12.38
2017-04-13T13:44:58.928Z,12.31
2017-04-13T13:46:08.304Z,12.38
2017-04-13T13:47:17.523Z,12.41
2017-04-13T13:48:26.422Z,12.35
2017-04-13T13:49:35.342Z,12.28
2017-04-13T13:50:44.572Z,12.31
2017-04-13T13:51:53.837Z,12.16
2017-04-13T13:53:02.731Z,12.16
2017-04-13T13:54:11.955Z,11.83
2017-04-13T13:55:21.173Z,11.83
2017-04-13T13:56:30.396Z,11.75
2017-04-13T13:57:39.690Z,11.85
2017-04-13T13:58:48.583Z,12.05
2017-04-13T13:59:57.475Z,12.16
2017-04-13T14:01:06.693Z,12.14
2017-04-13T14:02:15.587Z,12.14
2017-04-13T14:03:24.629Z,12.32
2017-04-13T14:04:33.568Z,12.52
2017-04-13T14:05:42.463Z,12.65
2017-04-13T14:06:51.365Z,12.86
2017-04-13T14:08:00.269Z,12.85
2017-04-13T14:09:09.324Z,12.78
2017-04-13T14:10:18.600Z,12.78
2017-04-13T14:11:27.500Z,13.03
2017-04-13T14:12:36.405Z,12.95
2017-04-13T14:13:45.297Z,13.03
2017-04-13T14:14:54.341Z,12.82
2017-04-13T14:16:03.238Z,12.83
2017-04-13T14:17:12.142Z,12.9
2017-04-13T14:18:21.694Z,13.2
2017-04-13T14:19:30.594Z,13.46
2017-04-13T14:20:39.740Z,13.59
2017-04-13T14:21:48.641Z,13.62
2017-04-13T14:22:57.543Z,13.51
2017-04-13T14:24:06.798Z,13.52
2017-04-13T14:25:16.033Z,13.63
2017-04-13T14:26:25.052Z,13.49
2017-04-13T14:27:33.952Z,13.33
2017-04-13T14:28:43.183Z,13.26
2017-04-13T14:29:52.083Z,13.01
2017-04-13T14:31:01.032Z,12.96
2017-04-13T14:32:09.929Z,12.92
2017-04-13T14:33:19.155Z,12.72
2017-04-13T14:34:28.384Z,12.83
2017-04-13T14:35:37.606Z,12.9
2017-04-13T14:36:46.505Z,12.82
2017-04-13T14:37:56.431Z,12.53
2017-04-13T14:39:05.651Z,12.53
2017-04-13T14:40:14.548Z,12.68
2017-04-13T14:41:23.447Z,12.79
2017-04-13T14:42:32.343Z,12.57
2017-04-13T14:43:41.291Z,12.82
2017-04-13T14:44:50.236Z,12.96
2017-04-13T14:45:59.132Z,12.93
2017-04-13T14:47:08.081Z,13.03
2017-04-13T14:48:17.318Z,12.9
2017-04-13T14:49:26.503Z,12.64
2017-04-13T14:50:35.401Z,12.78
2017-04-13T14:51:44.296Z,12.96
2017-04-13T14:52:53.197Z,13.17
2017-04-13T14:54:02.091Z,13.32
2017-04-13T14:55:11.339Z,13.15
2017-04-13T14:56:20.561Z,13.14
2017-04-13T14:57:29.466Z,13.26
2017-04-13T14:58:38.361Z,13.42
2017-04-13T14:59:47.261Z,13.55
2017-04-13T15:00:56.407Z,13.32
2017-04-13T15:02:05.958Z,13.19
2017-04-13T15:03:15.514Z,13.03
2017-04-13T15:04:24.411Z,12.9
2017-04-13T15:05:33.305Z,12.67
2017-04-13T15:06:42.608Z,12.6
2017-04-13T15:07:51.504Z,12.54
2017-04-13T15:09:00.394Z,12.53
2017-04-13T15:10:09.292Z,12.47
2017-04-13T15:11:18.185Z,12.35